createdAt,value
2022-09-21T00:00:50.387Z,8.10
2022-09-21T00:03:22.224Z,8.00
2022-09-21T00:05:56.587Z,8.00
2022-09-21T00:08:28.316Z,8.00
2022-09-21T00:11:05.839Z,8.00
2022-09-21T00:13:38.521Z,8.50
2022-09-21T00:16:11.043Z,8.00
2022-09-21T00:18:43.949Z,8.00
2022-09-21T00:21:17.388Z,7.90
2022-09-21T00:23:52.023Z,7.90
2022-09-21T00:26:27.018Z,7.90
2022-09-21T00:28:58.784Z,7.90
2022-09-21T00:31:32.435Z,8.30
2022-09-21T00:34:07.938Z,7.90
2022-09-21T00:36:39.652Z,7.90
2022-09-21T00:39:13.399Z,7.90
2022-09-21T00:41:53.790Z,7.90
2022-09-21T00:44:33.175Z,7.90
2022-09-21T00:47:06.721Z,7.90
2022-09-21T00:49:41.399Z,7.80
2022-09-21T00:52:13.011Z,7.90
2022-09-21T00:54:46.046Z,8.00
2022-09-21T00:57:22.000Z,8.00
2022-09-21T00:59:57.344Z,8.00
2022-09-21T01:02:31.378Z,7.80
2022-09-21T01:05:02.840Z,7.80
2022-09-21T01:07:42.378Z,7.70
2022-09-21T01:10:17.912Z,7.80
2022-09-21T01:13:16.679Z,7.70
2022-09-21T01:15:52.090Z,7.70
2022-09-21T01:18:25.060Z,7.70
2022-09-21T01:21:19.042Z,7.70
2022-09-21T01:24:27.576Z,7.70
2022-09-21T01:27:21.316Z,7.60
2022-09-21T01:30:00.175Z,7.60
2022-09-21T01:32:36.493Z,7.60
2022-09-21T01:35:11.083Z,7.60
2022-09-21T01:37:45.450Z,7.60
2022-09-21T01:40:20.192Z,7.60
2022-09-21T01:42:54.445Z,7.80
2022-09-21T01:45:32.497Z,7.70
2022-09-21T01:48:06.677Z,7.60
2022-09-21T01:50:41.617Z,7.60
2022-09-21T01:53:17.217Z,8.00
2022-09-21T01:55:50.420Z,7.60
2022-09-21T01:58:23.134Z,7.50
2022-09-21T02:01:02.102Z,7.70
2022-09-21T02:03:36.267Z,7.50
2022-09-21T02:06:10.972Z,7.70
2022-09-21T02:08:43.559Z,7.60
2022-09-21T02:11:17.758Z,7.70
2022-09-21T02:13:53.675Z,7.70
2022-09-21T02:16:39.065Z,7.70
2022-09-21T02:19:14.575Z,7.70
2022-09-21T02:21:53.476Z,7.70
2022-09-21T02:24:31.797Z,8.20
2022-09-21T02:27:06.995Z,7.80
2022-09-21T02:29:44.344Z,7.80
2022-09-21T02:32:21.438Z,7.80
2022-09-21T02:34:56.995Z,8.30
2022-09-21T02:37:32.115Z,7.80
2022-09-21T02:40:07.922Z,8.10
2022-09-21T02:42:42.510Z,7.80
2022-09-21T02:45:16.839Z,8.20
2022-09-21T02:47:52.680Z,7.90
2022-09-21T02:50:26.939Z,8.00
2022-09-21T02:52:58.394Z,7.90
2022-09-21T02:55:29.646Z,7.90
2022-09-21T02:58:02.329Z,7.90
2022-09-21T03:00:35.350Z,8.00
2022-09-21T03:03:20.829Z,7.40
2022-09-21T03:05:56.467Z,8.00
2022-09-21T03:08:28.457Z,8.00
2022-09-21T03:10:59.859Z,7.40
2022-09-21T03:13:32.317Z,8.00
2022-09-21T03:16:06.251Z,8.00
2022-09-21T03:18:43.698Z,8.10
2022-09-21T03:21:15.634Z,8.10
2022-09-21T03:23:49.581Z,8.10
2022-09-21T03:26:22.591Z,8.10
2022-09-21T03:28:54.856Z,8.10
2022-09-21T03:31:27.526Z,8.10
2022-09-21T03:34:02.699Z,8.80
2022-09-21T03:36:35.090Z,8.50
2022-09-21T03:39:09.165Z,8.20
2022-09-21T03:41:43.515Z,8.20
2022-09-21T03:44:18.458Z,8.20
2022-09-21T03:46:49.692Z,8.20
2022-09-21T03:49:25.108Z,8.10
2022-09-21T03:51:58.969Z,8.10
2022-09-21T03:54:31.494Z,8.20
2022-09-21T03:57:02.521Z,8.20
2022-09-21T03:59:39.365Z,8.20
2022-09-21T04:02:09.840Z,8.20
2022-09-21T04:04:44.445Z,8.20
2022-09-21T04:07:18.360Z,8.20
2022-09-21T04:09:56.958Z,8.20
2022-09-21T04:12:29.332Z,8.20
2022-09-21T04:15:01.709Z,8.20
2022-09-21T04:17:34.014Z,8.20
2022-09-21T04:20:10.164Z,8.30
2022-09-21T04:22:43.711Z,8.20
2022-09-21T04:25:16.392Z,8.20
2022-09-21T04:27:51.073Z,8.20
2022-09-21T04:30:22.737Z,8.20
2022-09-21T04:32:55.780Z,8.20
2022-09-21T04:35:31.849Z,8.40
2022-09-21T04:38:03.976Z,8.20
2022-09-21T04:40:35.384Z,8.20
2022-09-21T04:43:06.805Z,8.20
2022-09-21T04:45:39.782Z,8.20
2022-09-21T04:48:12.816Z,8.20
2022-09-21T04:50:47.058Z,8.20
2022-09-21T04:53:19.553Z,8.40
2022-09-21T04:55:53.642Z,8.20
2022-09-21T04:58:25.662Z,8.20
2022-09-21T05:00:58.556Z,8.70
2022-09-21T05:03:31.530Z,8.70
2022-09-21T05:06:09.714Z,8.20
2022-09-21T05:08:56.121Z,8.30
2022-09-21T05:11:28.394Z,8.50
2022-09-21T05:14:01.613Z,8.30
2022-09-21T05:16:33.495Z,8.30
2022-09-21T05:19:05.762Z,8.30
2022-09-21T05:21:43.643Z,8.30
2022-09-21T05:24:17.599Z,8.30
2022-09-21T05:26:51.998Z,8.30
2022-09-21T05:29:27.477Z,8.30
2022-09-21T05:32:04.486Z,8.30
2022-09-21T05:34:44.848Z,8.80
2022-09-21T05:37:26.834Z,8.40
2022-09-21T05:39:59.176Z,8.40
2022-09-21T05:42:31.001Z,8.40
2022-09-21T05:45:05.463Z,8.50
2022-09-21T05:47:44.242Z,8.50
2022-09-21T05:50:24.766Z,8.50
2022-09-21T05:53:08.275Z,7.80
2022-09-21T05:55:46.217Z,8.60
2022-09-21T05:58:22.687Z,9.30
2022-09-21T06:01:00.135Z,8.70
2022-09-21T06:03:36.322Z,8.70
2022-09-21T06:06:11.024Z,8.70
2022-09-21T06:08:46.427Z,8.70
2022-09-21T06:11:20.103Z,8.70
2022-09-21T06:13:54.503Z,8.80
2022-09-21T06:16:28.519Z,8.80
2022-09-21T06:19:02.682Z,8.80
2022-09-21T06:21:36.451Z,8.80
2022-09-21T06:24:13.595Z,8.80
2022-09-21T06:26:47.770Z,8.80
2022-09-21T06:29:23.861Z,8.80
2022-09-21T06:31:56.946Z,8.80
2022-09-21T06:34:28.892Z,9.00
2022-09-21T06:37:05.897Z,8.90
2022-09-21T06:39:41.606Z,8.90
2022-09-21T06:42:14.210Z,8.90
2022-09-21T06:44:47.592Z,9.30
2022-09-21T06:47:21.673Z,9.00
2022-09-21T06:49:58.419Z,9.00
2022-09-21T06:52:29.827Z,9.00
2022-09-21T06:55:08.713Z,9.00
2022-09-21T06:57:40.859Z,9.10
2022-09-21T07:00:15.028Z,9.10
2022-09-21T07:02:48.060Z,9.20
2022-09-21T07:05:23.235Z,9.40
2022-09-21T07:08:01.340Z,9.30
2022-09-21T07:10:37.145Z,9.50
2022-09-21T07:13:10.553Z,9.70
2022-09-21T07:15:45.291Z,9.80
2022-09-21T07:18:17.739Z,9.90
2022-09-21T07:20:50.752Z,9.90
2022-09-21T07:23:23.625Z,9.90
2022-09-21T07:25:59.645Z,10.20
2022-09-21T07:28:34.238Z,9.90
2022-09-21T07:31:12.335Z,10.40
2022-09-21T07:33:47.430Z,10.00
2022-09-21T07:36:19.668Z,10.10
2022-09-21T07:38:54.493Z,10.10
2022-09-21T07:41:31.401Z,10.20
2022-09-21T07:44:02.971Z,10.20
2022-09-21T07:46:41.331Z,10.80
2022-09-21T07:49:20.906Z,10.40
2022-09-21T07:51:53.037Z,10.40
2022-09-21T07:54:27.745Z,10.50
2022-09-21T07:57:15.349Z,10.50
2022-09-21T07:59:49.998Z,10.70
2022-09-21T08:02:23.216Z,10.50
2022-09-21T08:04:57.876Z,10.60
2022-09-21T08:07:33.390Z,10.60
2022-09-21T08:10:11.238Z,10.60
2022-09-21T08:12:44.769Z,10.70
2022-09-21T08:15:46.842Z,10.70
2022-09-21T08:18:18.490Z,10.80
2022-09-21T08:20:57.102Z,10.80
2022-09-21T08:23:34.477Z,10.80
2022-09-21T08:26:07.785Z,10.90
2022-09-21T08:28:40.609Z,11.10
2022-09-21T08:31:17.882Z,11.10
2022-09-21T08:33:55.486Z,11.40
2022-09-21T08:36:27.809Z,11.30
2022-09-21T08:39:00.662Z,11.30
2022-09-21T08:41:42.399Z,11.30
2022-09-21T08:44:10.833Z,10.90
2022-09-21T08:46:48.998Z,11.50
2022-09-21T08:49:24.505Z,11.50
2022-09-21T08:51:59.835Z,12.10
2022-09-21T08:54:33.939Z,12.10
2022-09-21T08:57:08.917Z,11.80
2022-09-21T08:59:40.750Z,12.10
2022-09-21T09:02:38.775Z,12.10
2022-09-21T09:05:23.368Z,12.10
2022-09-21T09:08:08.185Z,12.40
2022-09-21T09:10:41.985Z,12.70
2022-09-21T09:13:38.640Z,13.00
2022-09-21T09:16:15.214Z,13.30
2022-09-21T09:18:52.737Z,13.60
2022-09-21T09:21:31.763Z,13.70
2022-09-21T09:24:08.663Z,14.20
2022-09-21T09:26:45.547Z,13.90
2022-09-21T09:29:24.155Z,13.90
2022-09-21T09:31:58.533Z,13.90
2022-09-21T09:34:36.916Z,14.20
2022-09-21T09:37:13.327Z,14.00
2022-09-21T09:39:46.183Z,14.10
2022-09-21T09:42:27.789Z,14.50
2022-09-21T09:45:25.787Z,14.20
2022-09-21T09:47:55.067Z,14.20
2022-09-21T09:50:31.752Z,14.40
2022-09-21T09:53:08.161Z,14.70
2022-09-21T09:55:41.171Z,14.60
2022-09-21T09:58:19.733Z,14.90
2022-09-21T10:00:53.883Z,14.90
2022-09-21T10:03:26.107Z,15.20
2022-09-21T10:06:01.640Z,15.10
2022-09-21T10:08:45.038Z,15.20
2022-09-21T10:11:21.303Z,15.20
2022-09-21T10:13:52.881Z,15.10
2022-09-21T10:16:26.081Z,15.20
2022-09-21T10:19:01.765Z,15.20
2022-09-21T10:21:40.043Z,15.30
2022-09-21T10:24:18.681Z,15.20
2022-09-21T10:26:54.817Z,15.20
2022-09-21T10:29:35.666Z,15.20
2022-09-21T10:32:20.818Z,15.30
2022-09-21T10:35:23.980Z,15.30
2022-09-21T10:38:12.666Z,15.30
2022-09-21T10:40:46.927Z,15.30
2022-09-21T10:43:28.024Z,15.30
2022-09-21T10:46:00.888Z,15.50
2022-09-21T10:48:33.949Z,15.60
2022-09-21T10:51:08.902Z,15.80
2022-09-21T10:53:53.857Z,15.80
2022-09-21T10:56:29.073Z,15.90
2022-09-21T10:59:13.316Z,16.10
2022-09-21T11:01:48.921Z,16.30
2022-09-21T11:04:31.604Z,16.20
2022-09-21T11:07:07.580Z,16.30
2022-09-21T11:09:46.974Z,16.20
2022-09-21T11:12:39.968Z,16.20
2022-09-21T11:15:20.015Z,16.20
2022-09-21T11:17:58.075Z,16.30
2022-09-21T11:20:33.903Z,16.40
2022-09-21T11:23:12.242Z,16.40
2022-09-21T11:25:51.751Z,16.40
2022-09-21T11:28:28.343Z,16.40
2022-09-21T11:31:08.894Z,16.30
2022-09-21T11:33:53.750Z,16.00
2022-09-21T11:36:32.785Z,16.10
2022-09-21T11:39:06.941Z,16.00
2022-09-21T11:41:55.403Z,15.90
2022-09-21T11:44:45.620Z,15.80
2022-09-21T11:47:27.556Z,15.90
2022-09-21T11:50:30.147Z,16.10
2022-09-21T11:53:28.926Z,16.20
2022-09-21T11:56:15.216Z,16.30
2022-09-21T11:58:53.271Z,16.20
2022-09-21T12:01:57.494Z,15.90
2022-09-21T12:04:41.310Z,15.80
2022-09-21T12:07:43.116Z,15.70
2022-09-21T12:10:34.281Z,15.60
2022-09-21T12:13:10.151Z,15.50
2022-09-21T12:15:51.602Z,15.40
2022-09-21T12:18:29.927Z,15.50
2022-09-21T12:21:05.269Z,15.40
2022-09-21T12:23:42.702Z,15.50
2022-09-21T12:26:18.942Z,15.60
2022-09-21T12:28:53.108Z,15.40
2022-09-21T12:31:29.580Z,15.50
2022-09-21T12:34:04.006Z,15.30
2022-09-21T12:36:41.042Z,15.40
2022-09-21T12:39:18.287Z,15.30
2022-09-21T12:41:55.807Z,15.30
2022-09-21T12:44:29.376Z,15.20
2022-09-21T12:47:09.783Z,15.20
2022-09-21T12:49:44.808Z,15.20
2022-09-21T12:52:21.408Z,15.20
2022-09-21T12:54:57.240Z,15.20
2022-09-21T12:58:04.490Z,15.30
2022-09-21T13:00:27.798Z,15.30
2022-09-21T13:03:09.822Z,15.30
2022-09-21T13:05:46.096Z,15.30
2022-09-21T13:08:19.407Z,15.40
2022-09-21T13:10:59.639Z,15.40
2022-09-21T13:13:33.706Z,15.40
2022-09-21T13:16:08.654Z,15.40
2022-09-21T13:18:48.265Z,15.40
2022-09-21T13:21:22.332Z,15.40
2022-09-21T13:23:56.375Z,15.40
2022-09-21T13:26:38.685Z,15.40
2022-09-21T13:29:29.741Z,15.40
2022-09-21T13:32:02.627Z,15.50
2022-09-21T13:34:38.750Z,15.50
2022-09-21T13:37:36.565Z,15.50
2022-09-21T13:40:43.248Z,15.50
2022-09-21T13:43:23.593Z,15.40
2022-09-21T13:45:59.637Z,15.30
2022-09-21T13:48:33.191Z,15.30
2022-09-21T13:51:10.507Z,15.30
2022-09-21T13:53:45.405Z,15.40
2022-09-21T13:56:21.795Z,15.50
2022-09-21T13:58:57.544Z,15.60
2022-09-21T14:01:49.235Z,15.70
2022-09-21T14:04:26.218Z,15.80
2022-09-21T14:07:06.260Z,15.80
2022-09-21T14:09:40.953Z,15.80
2022-09-21T14:12:13.475Z,15.80
2022-09-21T14:14:45.035Z,15.80
2022-09-21T14:17:38.913Z,15.70
2022-09-21T14:20:10.874Z,15.80
2022-09-21T14:22:49.899Z,15.70
2022-09-21T14:25:31.015Z,15.80
2022-09-21T14:28:06.780Z,15.70
2022-09-21T14:30:39.285Z,15.70
2022-09-21T14:33:33.418Z,15.60
2022-09-21T14:36:05.350Z,15.60
2022-09-21T14:38:52.193Z,15.50
2022-09-21T14:41:27.384Z,15.50
2022-09-21T14:43:58.869Z,15.50
2022-09-21T14:46:45.698Z,15.40
2022-09-21T14:49:36.520Z,15.40
2022-09-21T14:52:14.245Z,15.40
2022-09-21T14:55:00.203Z,15.40
2022-09-21T14:57:35.522Z,15.30
2022-09-21T15:00:21.322Z,15.30
2022-09-21T15:02:56.607Z,15.20
2022-09-21T15:05:32.949Z,15.20
2022-09-21T15:08:34.790Z,15.10
2022-09-21T15:11:13.202Z,15.10
2022-09-21T15:13:52.289Z,15.00
2022-09-21T15:16:29.868Z,15.00
2022-09-21T15:19:17.818Z,14.90
2022-09-21T15:21:49.060Z,14.90
2022-09-21T15:24:23.027Z,14.90
2022-09-21T15:27:10.524Z,14.90
2022-09-21T15:29:42.461Z,14.80
2022-09-21T15:32:24.745Z,14.80
2022-09-21T15:35:02.365Z,14.80
2022-09-21T15:37:37.253Z,14.70
2022-09-21T15:40:19.817Z,14.70
2022-09-21T15:43:20.991Z,14.70
2022-09-21T15:45:54.905Z,14.70
2022-09-21T15:48:27.018Z,14.60
2022-09-21T15:51:00.908Z,14.50
2022-09-21T15:53:33.351Z,14.50
2022-09-21T15:56:04.838Z,14.60
2022-09-21T15:58:40.690Z,14.40
2022-09-21T16:01:13.672Z,14.30
2022-09-21T16:03:45.487Z,14.20
2022-09-21T16:06:28.328Z,14.20
2022-09-21T16:09:02.651Z,14.10
2022-09-21T16:11:38.495Z,14.10
2022-09-21T16:14:26.165Z,14.00
2022-09-21T16:17:22.999Z,13.90
2022-09-21T16:20:11.409Z,14.00
2022-09-21T16:22:44.441Z,13.80
2022-09-21T16:25:27.353Z,13.70
2022-09-21T16:28:05.115Z,13.70
2022-09-21T16:30:36.986Z,13.60
2022-09-21T16:33:37.048Z,13.50
2022-09-21T16:36:31.953Z,13.40
2022-09-21T16:39:06.550Z,13.40
2022-09-21T16:41:40.486Z,13.30
2022-09-21T16:44:21.166Z,13.30
2022-09-21T16:46:59.094Z,13.30
2022-09-21T16:49:37.074Z,13.20
2022-09-21T16:52:10.089Z,13.20
2022-09-21T16:54:41.693Z,13.20
2022-09-21T16:57:15.101Z,13.20
2022-09-21T16:59:47.320Z,13.40
2022-09-21T17:02:19.979Z,13.20
2022-09-21T17:04:55.748Z,13.20
2022-09-21T17:07:28.035Z,13.20
2022-09-21T17:09:59.723Z,13.20
2022-09-21T17:12:32.099Z,13.20
2022-09-21T17:15:05.312Z,13.20
2022-09-21T17:17:37.852Z,13.20
2022-09-21T17:20:18.568Z,13.10
2022-09-21T17:22:51.412Z,13.00
2022-09-21T17:25:26.170Z,13.10
2022-09-21T17:27:58.467Z,13.10
2022-09-21T17:30:35.301Z,13.00
2022-09-21T17:33:21.773Z,13.00
2022-09-21T17:35:59.070Z,12.90
2022-09-21T17:38:35.702Z,12.80
2022-09-21T17:41:10.943Z,12.80
2022-09-21T17:43:49.529Z,12.80
2022-09-21T17:46:26.492Z,12.70
2022-09-21T17:48:58.982Z,12.70
2022-09-21T17:51:49.697Z,12.70
2022-09-21T17:54:22.156Z,12.70
2022-09-21T17:56:57.949Z,12.60
2022-09-21T17:59:32.032Z,12.70
2022-09-21T18:02:08.788Z,12.80
2022-09-21T18:04:47.607Z,12.50
2022-09-21T18:07:28.105Z,12.50
2022-09-21T18:10:00.788Z,12.40
2022-09-21T18:12:47.721Z,12.40
2022-09-21T18:15:23.326Z,12.30
2022-09-21T18:18:08.844Z,12.40
2022-09-21T18:20:51.927Z,12.30
2022-09-21T18:23:32.565Z,12.20
2022-09-21T18:26:21.089Z,12.10
2022-09-21T18:28:58.429Z,12.10
2022-09-21T18:31:30.246Z,12.10
2022-09-21T18:34:13.284Z,12.10
2022-09-21T18:36:48.854Z,12.00
2022-09-21T18:39:28.386Z,11.90
2022-09-21T18:42:08.917Z,11.90
2022-09-21T18:44:44.798Z,11.70
2022-09-21T18:47:22.359Z,11.80
2022-09-21T18:49:58.662Z,11.60
2022-09-21T18:52:39.434Z,11.80
2022-09-21T18:55:21.088Z,11.70
2022-09-21T18:57:55.785Z,11.70
2022-09-21T19:00:31.729Z,11.70
2022-09-21T19:03:16.949Z,11.70
2022-09-21T19:05:56.669Z,11.70
2022-09-21T19:08:31.670Z,11.90
2022-09-21T19:11:08.555Z,11.60
2022-09-21T19:13:45.900Z,11.60
2022-09-21T19:16:25.761Z,11.60
2022-09-21T19:19:06.395Z,11.60
2022-09-21T19:21:43.020Z,11.60
2022-09-21T19:24:19.972Z,11.70
2022-09-21T19:27:00.216Z,11.70
2022-09-21T19:29:38.482Z,11.60
2022-09-21T19:32:18.324Z,11.60
2022-09-21T19:34:50.945Z,11.70
2022-09-21T19:37:23.052Z,11.60
2022-09-21T19:39:55.549Z,11.70
2022-09-21T19:42:35.328Z,11.60
2022-09-21T19:45:12.364Z,11.70
2022-09-21T19:47:47.542Z,11.70
2022-09-21T19:50:20.132Z,11.80
2022-09-21T19:53:13.176Z,11.70
2022-09-21T19:55:58.183Z,11.70
2022-09-21T19:58:46.019Z,11.70
2022-09-21T20:01:19.867Z,11.70
2022-09-21T20:03:54.459Z,11.70
2022-09-21T20:06:30.338Z,11.70
2022-09-21T20:09:06.965Z,11.70
2022-09-21T20:11:42.172Z,11.70
2022-09-21T20:14:26.365Z,11.70
2022-09-21T20:16:59.594Z,11.80
2022-09-21T20:19:38.061Z,11.60
2022-09-21T20:22:16.211Z,11.80
2022-09-21T20:25:01.932Z,11.70
2022-09-21T20:27:41.446Z,11.70
2022-09-21T20:30:21.626Z,11.60
2022-09-21T20:32:57.122Z,11.70
2022-09-21T20:35:35.146Z,11.60
2022-09-21T20:38:10.280Z,11.60
2022-09-21T20:40:49.577Z,11.60
2022-09-21T20:43:30.292Z,11.60
2022-09-21T20:46:13.256Z,11.60
2022-09-21T20:48:49.021Z,11.60
2022-09-21T20:51:29.445Z,11.60
2022-09-21T20:54:06.851Z,11.60
2022-09-21T20:56:40.151Z,11.60
2022-09-21T20:59:13.539Z,11.80
2022-09-21T21:01:49.441Z,11.60
2022-09-21T21:04:26.804Z,11.90
2022-09-21T21:07:02.755Z,11.80
2022-09-21T21:09:37.041Z,11.50
2022-09-21T21:12:11.026Z,11.70
2022-09-21T21:15:00.555Z,11.50
2022-09-21T21:17:37.118Z,11.50
2022-09-21T21:20:17.070Z,11.50
2022-09-21T21:22:51.583Z,11.50
2022-09-21T21:25:26.561Z,11.50
2022-09-21T21:28:02.906Z,11.50
2022-09-21T21:30:38.654Z,11.40
2022-09-21T21:33:20.005Z,11.40
2022-09-21T21:35:54.504Z,11.60
2022-09-21T21:38:27.788Z,11.40
2022-09-21T21:41:03.285Z,11.40
2022-09-21T21:43:46.800Z,11.40
2022-09-21T21:46:22.494Z,11.40
2022-09-21T21:48:58.188Z,11.40
2022-09-21T21:51:30.758Z,11.40
2022-09-21T21:54:06.324Z,11.30
2022-09-21T21:56:37.959Z,11.40
2022-09-21T21:59:15.394Z,11.30
2022-09-21T22:01:53.127Z,11.40
2022-09-21T22:04:28.164Z,11.20
2022-09-21T22:07:00.329Z,11.40
2022-09-21T22:09:31.943Z,11.10
2022-09-21T22:12:04.409Z,11.10
2022-09-21T22:14:36.028Z,11.10
2022-09-21T22:17:09.062Z,11.00
2022-09-21T22:19:45.869Z,11.00
2022-09-21T22:22:17.760Z,11.10
2022-09-21T22:24:51.894Z,11.20
2022-09-21T22:27:23.602Z,11.00
2022-09-21T22:29:55.604Z,11.00
2022-09-21T22:32:27.133Z,11.00
2022-09-21T22:35:02.123Z,10.90
2022-09-21T22:37:35.160Z,10.90
2022-09-21T22:40:08.090Z,10.80
2022-09-21T22:42:41.021Z,10.80
2022-09-21T22:45:14.440Z,10.80
2022-09-21T22:47:46.985Z,10.70
2022-09-21T22:50:22.446Z,10.70
2022-09-21T22:52:57.464Z,10.70
2022-09-21T22:55:29.520Z,10.60
2022-09-21T22:58:01.477Z,10.60
2022-09-21T23:00:32.637Z,10.60
2022-09-21T23:03:05.105Z,10.60
2022-09-21T23:05:39.927Z,10.60
2022-09-21T23:08:13.825Z,10.60
2022-09-21T23:10:46.021Z,10.60
2022-09-21T23:13:19.589Z,10.80
2022-09-21T23:15:54.284Z,10.50
2022-09-21T23:18:26.767Z,10.50
2022-09-21T23:21:05.584Z,10.50
2022-09-21T23:23:36.843Z,10.50
2022-09-21T23:26:09.619Z,10.40
2022-09-21T23:28:45.026Z,10.40
2022-09-21T23:31:17.413Z,10.40
2022-09-21T23:33:50.544Z,10.40
2022-09-21T23:36:28.907Z,10.40
2022-09-21T23:38:57.944Z,10.30
2022-09-21T23:41:33.011Z,10.30
2022-09-21T23:44:06.752Z,10.30
2022-09-21T23:46:39.806Z,10.20
2022-09-21T23:49:13.637Z,10.20
2022-09-21T23:51:50.705Z,10.20
2022-09-21T23:54:21.659Z,10.10
2022-09-21T23:56:52.812Z,10.20
2022-09-21T23:59:26.391Z,10.10
